Airfield :
LOGIN :

Register | Disclaimer

   EN    FR    IT 

 










Legend :    VFR   Marginal VFR   IFR   Intensive IFR   Very Intensive IFR
Visi :
Ceiling :
>= 8 km
>= 3000ft
5 to 8 km
1000 to 3000 ft
1500m to 5 km
500 to 1000 ft
800 to 1500m
200 to 500 ft
< 800m
< 200 ft
Symbols :   Thunderstorms  Fog  Heavy snow  Heavy precipitations  Wind > 20 kt
SIGMETs :     Misc.  Thunderstorms  Icing  Turbulence  Mountain Waves  Volcanic Ashes






- Airport Elevation : 353 ft
- IATA code : LIN


LIML - Milano Linate

CURRENT METAR :
  • 250520Z 04003KT 360V060 9999 -RA SCT030 BKN060 18/18 Q1014 NOSIG

EXPIRED METARs :
  • 250450Z VRB02KT 9999 FEW035 BKN070 18/17 Q1013 NOSIG
  • 250420Z 29003KT 9000 RA SCT035 BKN070 18/18 Q1013 NOSIG
  • 250350Z VRB04KT 6000 RA SCT010 SCT035 BKN050 18/17 Q1014 NOSIG
  • 250320Z 21003KT 160V260 9999 +RA FEW010 SCT035 BKN050 19/17 Q1014 NOSIG
  • 250250Z 26003KT 210V300 9999 SCT060 19/17 Q1013 NOSIG
  • 250220Z 26005KT 230V300 9999 SCT060 19/17 Q1013 NOSIG
  • 250150Z 23004KT 180V270 9999 FEW010 BKN060 19/17 Q1013 NOSIG
  • 250120Z 25005KT 160V290 9999 FEW010 BKN060 19/18 Q1013 NOSIG
  • 250050Z 23005KT 190V280 9999 FEW010 SCT060 19/18 Q1013 NOSIG
  • 250020Z 21005KT 180V260 9999 SCT060 19/18 Q1013 NOSIG

TAF TAF LIML
Valid from the 25 at 06:00 until the 26 at 06:00 UTC


250500Z 2506/2606 VRB05KT 9999 SCT030 BKN070
TEMPO 2506/2509 4000 SHRA BKN013
TEMPO 2509/2521 4000 TSRA BKN013



MET'MAP, your aeronautical weather chart ! - Copyright ORBIFLY December 2007 - Disclaimer

ORBIFLY MET'MAP TEAM :

Programming & Development : Alexandra Zaïnal
Original concept : Baudouin d'Aumeries
Technical & hardware support : Manuel Goepfert
Assistance : Marc-Olivier Méhu




SOURCES & CREDITS :

   NOAA